Aérodrome :
LOGIN :

S'inscrire | Disclaimer

   EN    FR    IT 

 










Légende :    VFR   VFR Marginal   IFR   IFR Intensif   IFR Très Intensif
Visi : 
Plafond : 
>= 8 km
>= 3000ft
5 à 8 km
1000 à 3000 ft
1500m à 5 km
500 à 1000 ft
800 à 1500m
200 à 500 ft
< 800m
< 200 ft
Symboles :   Orages  Brouillard  Fortes neiges  Fortes précipitations  Vent > 20 kt
SIGMETs :   Divers  Orages  Givrage  Turbulence  Onde Orograph.  Cendres Volcan.






- Altitude de l'aérodrome : 194 ft


EBCV - Chièvres

DERNIER METAR :
  • 041425Z AUTO 07009KT 9000 BR OVC014/// 01/M01 Q1015 GRN

METARs EXPIRÉS :
  • 041355Z AUTO 07009KT 9999 BR OVC013/// 01/M01 Q1015 GRN
  • 041325Z AUTO 05011KT 9999 OVC014/// 01/M01 Q1014 GRN
  • 041255Z AUTO 06008KT 8000 BR OVC013/// 02/M01 Q1014 GRN
  • 041225Z AUTO 06010KT 9999 OVC014/// 02/M01 Q1015 GRN
  • 041155Z AUTO 05010KT 9000 BR OVC014/// 02/M01 Q1015 GRN

TAF TAF EBCV
Valide du 04 à 13h jusqu'au 04 à 22h UTC


041141Z 0413/0422 06007KT 7000 OVC014
TEMPO 0413/0422 5000 BR OVC008
PROB30
TEMPO 0413/0416 8000 OVC016 BY EBWM



MET'MAP, la Météo Aéronautique d'un coup d'oeil ! - Copyright ORBIFLY Décembre 2007 - Disclaimer

ORBIFLY MET'MAP TEAM :

Programmation & Développement : Alexandra Zaïnal
Sur une idée originale de : Baudouin d'Aumeries
Soutien technique & logistique : Manuel Goepfert
Assistance : Marc-Olivier Méhu




SOURCES & CREDITS :

   NOAA